sensor_id;sensor_type;location;lat;lon;timestamp;temperature;humidity
9666;DHT22;4871;52.004;5.924;2023-05-10T00:00:07;14.5;71.2
9666;DHT22;4871;52.004;5.924;2023-05-10T00:01:00;14.5;71.1
9666;DHT22;4871;52.004;5.924;2023-05-10T00:02:03;14.5;71.0
9666;DHT22;4871;52.004;5.924;2023-05-10T00:03:00;14.5;71.0
9666;DHT22;4871;52.004;5.924;2023-05-10T00:04:04;14.5;71.1
9666;DHT22;4871;52.004;5.924;2023-05-10T00:05:00;14.5;70.8
9666;DHT22;4871;52.004;5.924;2023-05-10T00:06:04;14.5;70.8
9666;DHT22;4871;52.004;5.924;2023-05-10T00:07:00;14.4;71.2
9666;DHT22;4871;52.004;5.924;2023-05-10T00:08:04;14.4;71.1
9666;DHT22;4871;52.004;5.924;2023-05-10T00:09:00;14.4;71.0
9666;DHT22;4871;52.004;5.924;2023-05-10T00:10:04;14.4;70.8
9666;DHT22;4871;52.004;5.924;2023-05-10T00:11:00;14.4;71.6
9666;DHT22;4871;52.004;5.924;2023-05-10T00:12:04;14.4;71.4
9666;DHT22;4871;52.004;5.924;2023-05-10T00:13:00;14.4;71.6
9666;DHT22;4871;52.004;5.924;2023-05-10T00:14:04;14.4;71.3
9666;DHT22;4871;52.004;5.924;2023-05-10T00:15:00;14.4;71.1
9666;DHT22;4871;52.004;5.924;2023-05-10T00:16:04;14.4;71.4
9666;DHT22;4871;52.004;5.924;2023-05-10T00:17:00;14.4;71.3
9666;DHT22;4871;52.004;5.924;2023-05-10T00:18:03;14.4;71.0
9666;DHT22;4871;52.004;5.924;2023-05-10T00:19:00;14.4;71.0
9666;DHT22;4871;52.004;5.924;2023-05-10T00:20:06;14.4;71.8
9666;DHT22;4871;52.004;5.924;2023-05-10T00:21:00;14.4;71.2
9666;DHT22;4871;52.004;5.924;2023-05-10T00:22:04;14.4;71.1
9666;DHT22;4871;52.004;5.924;2023-05-10T00:23:00;14.4;71.0
9666;DHT22;4871;52.004;5.924;2023-05-10T00:24:03;14.4;70.8
9666;DHT22;4871;52.004;5.924;2023-05-10T00:25:00;14.4;71.0
9666;DHT22;4871;52.004;5.924;2023-05-10T00:26:03;14.4;70.9
9666;DHT22;4871;52.004;5.924;2023-05-10T00:27:00;14.4;70.8
9666;DHT22;4871;52.004;5.924;2023-05-10T00:28:05;14.4;70.9
9666;DHT22;4871;52.004;5.924;2023-05-10T00:29:00;14.4;71.2
9666;DHT22;4871;52.004;5.924;2023-05-10T00:30:05;14.4;70.9
9666;DHT22;4871;52.004;5.924;2023-05-10T00:31:00;14.4;71.4
9666;DHT22;4871;52.004;5.924;2023-05-10T00:32:05;14.4;71.0
9666;DHT22;4871;52.004;5.924;2023-05-10T00:33:00;14.4;70.9
9666;DHT22;4871;52.004;5.924;2023-05-10T00:34:03;14.4;71.0
9666;DHT22;4871;52.004;5.924;2023-05-10T00:35:00;14.4;70.9
9666;DHT22;4871;52.004;5.924;2023-05-10T00:36:07;14.4;71.1
9666;DHT22;4871;52.004;5.924;2023-05-10T00:37:00;14.4;71.0
9666;DHT22;4871;52.004;5.924;2023-05-10T00:38:04;14.4;71.0
9666;DHT22;4871;52.004;5.924;2023-05-10T00:39:00;14.4;70.8
9666;DHT22;4871;52.004;5.924;2023-05-10T00:40:04;14.4;70.9
9666;DHT22;4871;52.004;5.924;2023-05-10T00:41:00;14.4;71.1
9666;DHT22;4871;52.004;5.924;2023-05-10T00:42:04;14.4;70.9
9666;DHT22;4871;52.004;5.924;2023-05-10T00:43:01;14.3;71.0
9666;DHT22;4871;52.004;5.924;2023-05-10T00:44:05;14.4;71.1
9666;DHT22;4871;52.004;5.924;2023-05-10T00:45:00;14.4;71.4
9666;DHT22;4871;52.004;5.924;2023-05-10T00:46:05;14.4;70.9
9666;DHT22;4871;52.004;5.924;2023-05-10T00:47:00;14.4;71.0
9666;DHT22;4871;52.004;5.924;2023-05-10T00:48:04;14.4;71.1
9666;DHT22;4871;52.004;5.924;2023-05-10T00:49:00;14.4;71.2
9666;DHT22;4871;52.004;5.924;2023-05-10T00:50:07;14.4;71.1
9666;DHT22;4871;52.004;5.924;2023-05-10T00:51:00;14.4;71.2
9666;DHT22;4871;52.004;5.924;2023-05-10T00:52:03;14.3;71.2
9666;DHT22;4871;52.004;5.924;2023-05-10T00:53:00;14.4;71.0
9666;DHT22;4871;52.004;5.924;2023-05-10T00:54:05;14.4;70.8
9666;DHT22;4871;52.004;5.924;2023-05-10T00:55:01;14.4;70.9
9666;DHT22;4871;52.004;5.924;2023-05-10T00:56:05;14.4;71.0
9666;DHT22;4871;52.004;5.924;2023-05-10T00:57:00;14.4;70.8
9666;DHT22;4871;52.004;5.924;2023-05-10T00:58:04;14.4;70.7
9666;DHT22;4871;52.004;5.924;2023-05-10T00:59:00;14.3;71.1
9666;DHT22;4871;52.004;5.924;2023-05-10T01:00:05;14.4;71.0
9666;DHT22;4871;52.004;5.924;2023-05-10T01:01:01;14.3;70.9
9666;DHT22;4871;52.004;5.924;2023-05-10T01:02:05;14.3;71.2
9666;DHT22;4871;52.004;5.924;2023-05-10T01:03:01;14.4;70.9
9666;DHT22;4871;52.004;5.924;2023-05-10T01:04:04;14.4;71.0
9666;DHT22;4871;52.004;5.924;2023-05-10T01:05:01;14.4;70.7
9666;DHT22;4871;52.004;5.924;2023-05-10T01:06:06;14.3;71.4
9666;DHT22;4871;52.004;5.924;2023-05-10T01:07:01;14.3;71.1
9666;DHT22;4871;52.004;5.924;2023-05-10T01:08:03;14.3;71.1
9666;DHT22;4871;52.004;5.924;2023-05-10T01:09:00;14.3;70.6
9666;DHT22;4871;52.004;5.924;2023-05-10T01:10:05;14.4;71.1
9666;DHT22;4871;52.004;5.924;2023-05-10T01:11:00;14.4;71.4
9666;DHT22;4871;52.004;5.924;2023-05-10T01:12:07;14.4;70.9
9666;DHT22;4871;52.004;5.924;2023-05-10T01:13:00;14.3;71.0
9666;DHT22;4871;52.004;5.924;2023-05-10T01:14:06;14.4;71.0
9666;DHT22;4871;52.004;5.924;2023-05-10T01:15:00;14.3;70.8
9666;DHT22;4871;52.004;5.924;2023-05-10T01:16:06;14.4;71.0
9666;DHT22;4871;52.004;5.924;2023-05-10T01:17:00;14.3;70.8
9666;DHT22;4871;52.004;5.924;2023-05-10T01:18:04;14.3;70.8
9666;DHT22;4871;52.004;5.924;2023-05-10T01:19:00;14.4;70.8
9666;DHT22;4871;52.004;5.924;2023-05-10T01:20:09;14.3;71.0
9666;DHT22;4871;52.004;5.924;2023-05-10T01:21:06;14.4;70.9
9666;DHT22;4871;52.004;5.924;2023-05-10T01:22:21;14.3;70.8
9666;DHT22;4871;52.004;5.924;2023-05-10T01:23:16;14.3;70.9
9666;DHT22;4871;52.004;5.924;2023-05-10T01:24:17;14.3;71.0
9666;DHT22;4871;52.004;5.924;2023-05-10T01:25:11;14.4;70.9
9666;DHT22;4871;52.004;5.924;2023-05-10T01:26:14;14.3;70.9
9666;DHT22;4871;52.004;5.924;2023-05-10T01:27:20;14.3;71.1
9666;DHT22;4871;52.004;5.924;2023-05-10T01:28:17;14.3;71.1
9666;DHT22;4871;52.004;5.924;2023-05-10T01:29:11;14.3;71.0
9666;DHT22;4871;52.004;5.924;2023-05-10T01:30:25;14.3;71.1
9666;DHT22;4871;52.004;5.924;2023-05-10T01:31:12;14.4;71.2
9666;DHT22;4871;52.004;5.924;2023-05-10T01:32:16;14.3;71.0
9666;DHT22;4871;52.004;5.924;2023-05-10T01:33:01;14.3;71.4
9666;DHT22;4871;52.004;5.924;2023-05-10T01:34:07;14.3;71.1
9666;DHT22;4871;52.004;5.924;2023-05-10T01:35:02;14.3;70.9
9666;DHT22;4871;52.004;5.924;2023-05-10T01:36:13;14.3;71.1
9666;DHT22;4871;52.004;5.924;2023-05-10T01:37:04;14.3;70.8
9666;DHT22;4871;52.004;5.924;2023-05-10T01:38:10;14.3;71.0
9666;DHT22;4871;52.004;5.924;2023-05-10T01:39:03;14.3;70.9
9666;DHT22;4871;52.004;5.924;2023-05-10T01:40:08;14.3;71.0
9666;DHT22;4871;52.004;5.924;2023-05-10T01:41:08;14.3;70.9
9666;DHT22;4871;52.004;5.924;2023-05-10T01:42:06;14.3;70.8
9666;DHT22;4871;52.004;5.924;2023-05-10T01:43:03;14.3;71.2
9666;DHT22;4871;52.004;5.924;2023-05-10T01:44:11;14.3;71.0
9666;DHT22;4871;52.004;5.924;2023-05-10T01:45:07;14.3;70.9
9666;DHT22;4871;52.004;5.924;2023-05-10T01:46:14;14.3;71.1
9666;DHT22;4871;52.004;5.924;2023-05-10T01:47:03;14.3;71.3
9666;DHT22;4871;52.004;5.924;2023-05-10T01:48:06;14.3;71.2
9666;DHT22;4871;52.004;5.924;2023-05-10T01:49:02;14.3;71.5
9666;DHT22;4871;52.004;5.924;2023-05-10T01:50:15;14.3;71.5
9666;DHT22;4871;52.004;5.924;2023-05-10T01:51:00;14.3;71.4
9666;DHT22;4871;52.004;5.924;2023-05-10T01:52:08;14.3;71.3
9666;DHT22;4871;52.004;5.924;2023-05-10T01:53:01;14.3;71.0
9666;DHT22;4871;52.004;5.924;2023-05-10T01:54:01;14.4;71.0
9666;DHT22;4871;52.004;5.924;2023-05-10T01:55:07;14.3;71.1
9666;DHT22;4871;52.004;5.924;2023-05-10T01:56:01;14.3;71.0
9666;DHT22;4871;52.004;5.924;2023-05-10T01:57:06;14.3;71.0
9666;DHT22;4871;52.004;5.924;2023-05-10T01:58:03;14.3;71.0
9666;DHT22;4871;52.004;5.924;2023-05-10T01:59:08;14.3;71.0
9666;DHT22;4871;52.004;5.924;2023-05-10T02:00:02;14.3;70.8
9666;DHT22;4871;52.004;5.924;2023-05-10T02:01:06;14.3;70.9
9666;DHT22;4871;52.004;5.924;2023-05-10T02:02:00;14.3;70.9
9666;DHT22;4871;52.004;5.924;2023-05-10T02:03:06;14.3;70.9
9666;DHT22;4871;52.004;5.924;2023-05-10T02:04:01;14.3;71.1
9666;DHT22;4871;52.004;5.924;2023-05-10T02:05:06;14.3;70.9
9666;DHT22;4871;52.004;5.924;2023-05-10T02:06:01;14.3;70.9
9666;DHT22;4871;52.004;5.924;2023-05-10T02:07:04;14.3;71.1
9666;DHT22;4871;52.004;5.924;2023-05-10T02:08:01;14.3;71.3
9666;DHT22;4871;52.004;5.924;2023-05-10T02:09:05;14.3;71.0
9666;DHT22;4871;52.004;5.924;2023-05-10T02:10:01;14.3;70.9
9666;DHT22;4871;52.004;5.924;2023-05-10T02:11:04;14.3;71.0
9666;DHT22;4871;52.004;5.924;2023-05-10T02:12:02;14.3;71.0
9666;DHT22;4871;52.004;5.924;2023-05-10T02:13:07;14.3;71.3
9666;DHT22;4871;52.004;5.924;2023-05-10T02:14:01;14.3;71.0
9666;DHT22;4871;52.004;5.924;2023-05-10T02:15:07;14.3;71.0
9666;DHT22;4871;52.004;5.924;2023-05-10T02:16:01;14.3;71.0
9666;DHT22;4871;52.004;5.924;2023-05-10T02:17:05;14.3;71.0
9666;DHT22;4871;52.004;5.924;2023-05-10T02:18:02;14.3;70.9
9666;DHT22;4871;52.004;5.924;2023-05-10T02:19:04;14.3;71.0
9666;DHT22;4871;52.004;5.924;2023-05-10T02:20:01;14.3;71.0
9666;DHT22;4871;52.004;5.924;2023-05-10T02:21:05;14.3;71.0
9666;DHT22;4871;52.004;5.924;2023-05-10T02:22:00;14.3;70.9
9666;DHT22;4871;52.004;5.924;2023-05-10T02:23:04;14.3;71.0
9666;DHT22;4871;52.004;5.924;2023-05-10T02:24:02;14.3;71.0
9666;DHT22;4871;52.004;5.924;2023-05-10T02:25:06;14.3;71.2
9666;DHT22;4871;52.004;5.924;2023-05-10T02:26:01;14.3;71.0
9666;DHT22;4871;52.004;5.924;2023-05-10T02:27:06;14.3;71.1
9666;DHT22;4871;52.004;5.924;2023-05-10T02:28:02;14.3;70.8
9666;DHT22;4871;52.004;5.924;2023-05-10T02:29:05;14.3;71.3
9666;DHT22;4871;52.004;5.924;2023-05-10T02:30:01;14.3;70.9
9666;DHT22;4871;52.004;5.924;2023-05-10T02:31:05;14.3;71.1
9666;DHT22;4871;52.004;5.924;2023-05-10T02:32:01;14.3;71.0
9666;DHT22;4871;52.004;5.924;2023-05-10T02:33:05;14.3;70.9
9666;DHT22;4871;52.004;5.924;2023-05-10T02:34:01;14.3;70.8
9666;DHT22;4871;52.004;5.924;2023-05-10T02:35:05;14.3;70.9
9666;DHT22;4871;52.004;5.924;2023-05-10T02:36:01;14.3;70.9
9666;DHT22;4871;52.004;5.924;2023-05-10T02:37:04;14.3;71.0
9666;DHT22;4871;52.004;5.924;2023-05-10T02:38:00;14.3;71.1
9666;DHT22;4871;52.004;5.924;2023-05-10T02:39:09;14.3;70.9
9666;DHT22;4871;52.004;5.924;2023-05-10T02:40:01;14.3;71.6
9666;DHT22;4871;52.004;5.924;2023-05-10T02:41:05;14.3;71.2
9666;DHT22;4871;52.004;5.924;2023-05-10T02:42:01;14.3;71.0
9666;DHT22;4871;52.004;5.924;2023-05-10T02:43:03;14.3;70.9
9666;DHT22;4871;52.004;5.924;2023-05-10T02:44:02;14.3;70.9
9666;DHT22;4871;52.004;5.924;2023-05-10T02:45:10;14.3;71.3
9666;DHT22;4871;52.004;5.924;2023-05-10T02:46:01;14.3;71.2
9666;DHT22;4871;52.004;5.924;2023-05-10T02:47:05;14.3;70.9
9666;DHT22;4871;52.004;5.924;2023-05-10T02:48:00;14.3;71.2
9666;DHT22;4871;52.004;5.924;2023-05-10T02:49:03;14.3;71.5
9666;DHT22;4871;52.004;5.924;2023-05-10T02:50:00;14.3;71.4
9666;DHT22;4871;52.004;5.924;2023-05-10T02:51:07;14.3;71.1
9666;DHT22;4871;52.004;5.924;2023-05-10T02:52:04;14.3;71.7
9666;DHT22;4871;52.004;5.924;2023-05-10T02:53:10;14.3;71.5
9666;DHT22;4871;52.004;5.924;2023-05-10T02:54:06;14.3;71.3
9666;DHT22;4871;52.004;5.924;2023-05-10T02:55:04;14.3;71.0
9666;DHT22;4871;52.004;5.924;2023-05-10T02:56:04;14.3;71.1
9666;DHT22;4871;52.004;5.924;2023-05-10T02:57:06;14.3;71.0
9666;DHT22;4871;52.004;5.924;2023-05-10T02:58:01;14.3;71.0
9666;DHT22;4871;52.004;5.924;2023-05-10T02:59:05;14.3;70.9
9666;DHT22;4871;52.004;5.924;2023-05-10T03:00:00;14.3;71.0
9666;DHT22;4871;52.004;5.924;2023-05-10T03:01:04;14.3;71.1
9666;DHT22;4871;52.004;5.924;2023-05-10T03:02:01;14.3;71.3
9666;DHT22;4871;52.004;5.924;2023-05-10T03:03:03;14.3;71.0
9666;DHT22;4871;52.004;5.924;2023-05-10T03:04:00;14.3;71.3
9666;DHT22;4871;52.004;5.924;2023-05-10T03:05:04;14.3;71.8
9666;DHT22;4871;52.004;5.924;2023-05-10T03:06:00;14.3;71.0
9666;DHT22;4871;52.004;5.924;2023-05-10T03:07:03;14.3;72.2
9666;DHT22;4871;52.004;5.924;2023-05-10T03:08:04;14.3;71.5
9666;DHT22;4871;52.004;5.924;2023-05-10T03:09:04;14.3;71.7
9666;DHT22;4871;52.004;5.924;2023-05-10T03:10:00;14.3;71.8
9666;DHT22;4871;52.004;5.924;2023-05-10T03:11:16;14.3;71.3
9666;DHT22;4871;52.004;5.924;2023-05-10T03:12:04;14.3;71.4
9666;DHT22;4871;52.004;5.924;2023-05-10T03:13:09;14.3;71.3
9666;DHT22;4871;52.004;5.924;2023-05-10T03:14:07;14.3;71.9
9666;DHT22;4871;52.004;5.924;2023-05-10T03:15:13;14.3;71.4
9666;DHT22;4871;52.004;5.924;2023-05-10T03:16:08;14.3;71.4
9666;DHT22;4871;52.004;5.924;2023-05-10T03:17:09;14.3;71.5
9666;DHT22;4871;52.004;5.924;2023-05-10T03:18:04;14.3;71.4
9666;DHT22;4871;52.004;5.924;2023-05-10T03:19:12;14.3;71.4
9666;DHT22;4871;52.004;5.924;2023-05-10T03:20:04;14.3;71.3
9666;DHT22;4871;52.004;5.924;2023-05-10T03:21:07;14.3;71.1
9666;DHT22;4871;52.004;5.924;2023-05-10T03:22:10;14.3;71.6
9666;DHT22;4871;52.004;5.924;2023-05-10T03:23:11;14.3;71.3
9666;DHT22;4871;52.004;5.924;2023-05-10T03:24:05;14.3;71.4
9666;DHT22;4871;52.004;5.924;2023-05-10T03:25:06;14.3;71.2
9666;DHT22;4871;52.004;5.924;2023-05-10T03:26:00;14.3;71.1
9666;DHT22;4871;52.004;5.924;2023-05-10T03:27:05;14.3;71.3
9666;DHT22;4871;52.004;5.924;2023-05-10T03:28:01;14.2;71.2
9666;DHT22;4871;52.004;5.924;2023-05-10T03:29:05;14.2;71.8
9666;DHT22;4871;52.004;5.924;2023-05-10T03:30:01;14.3;71.5
9666;DHT22;4871;52.004;5.924;2023-05-10T03:31:05;14.3;71.4
9666;DHT22;4871;52.004;5.924;2023-05-10T03:32:00;14.3;71.7
9666;DHT22;4871;52.004;5.924;2023-05-10T03:33:06;14.2;71.9
9666;DHT22;4871;52.004;5.924;2023-05-10T03:34:00;14.2;71.6
9666;DHT22;4871;52.004;5.924;2023-05-10T03:35:06;14.2;71.8
9666;DHT22;4871;52.004;5.924;2023-05-10T03:36:00;14.2;71.6
9666;DHT22;4871;52.004;5.924;2023-05-10T03:37:05;14.2;71.4
9666;DHT22;4871;52.004;5.924;2023-05-10T03:38:00;14.3;71.6
9666;DHT22;4871;52.004;5.924;2023-05-10T03:39:05;14.3;71.6
9666;DHT22;4871;52.004;5.924;2023-05-10T03:40:00;14.2;71.4
9666;DHT22;4871;52.004;5.924;2023-05-10T03:41:04;14.3;71.7
9666;DHT22;4871;52.004;5.924;2023-05-10T03:42:00;14.2;71.3
9666;DHT22;4871;52.004;5.924;2023-05-10T03:43:04;14.2;71.5
9666;DHT22;4871;52.004;5.924;2023-05-10T03:44:00;14.2;71.3
9666;DHT22;4871;52.004;5.924;2023-05-10T03:45:06;14.2;71.3
9666;DHT22;4871;52.004;5.924;2023-05-10T03:46:01;14.2;71.9
9666;DHT22;4871;52.004;5.924;2023-05-10T03:47:05;14.2;71.8
9666;DHT22;4871;52.004;5.924;2023-05-10T03:48:00;14.2;71.9
9666;DHT22;4871;52.004;5.924;2023-05-10T03:49:04;14.2;71.4
9666;DHT22;4871;52.004;5.924;2023-05-10T03:50:00;14.2;71.6
9666;DHT22;4871;52.004;5.924;2023-05-10T03:51:04;14.2;71.2
9666;DHT22;4871;52.004;5.924;2023-05-10T03:52:00;14.2;71.3
9666;DHT22;4871;52.004;5.924;2023-05-10T03:53:05;14.2;71.5
9666;DHT22;4871;52.004;5.924;2023-05-10T03:54:00;14.2;71.3
9666;DHT22;4871;52.004;5.924;2023-05-10T03:55:04;14.2;71.4
9666;DHT22;4871;52.004;5.924;2023-05-10T03:56:00;14.2;71.3
9666;DHT22;4871;52.004;5.924;2023-05-10T03:57:05;14.2;71.3
9666;DHT22;4871;52.004;5.924;2023-05-10T03:58:00;14.2;71.6
9666;DHT22;4871;52.004;5.924;2023-05-10T03:59:07;14.2;71.5
9666;DHT22;4871;52.004;5.924;2023-05-10T04:00:00;14.2;71.4
9666;DHT22;4871;52.004;5.924;2023-05-10T04:01:04;14.2;71.5
9666;DHT22;4871;52.004;5.924;2023-05-10T04:02:00;14.2;71.6
9666;DHT22;4871;52.004;5.924;2023-05-10T04:03:05;14.2;71.4
9666;DHT22;4871;52.004;5.924;2023-05-10T04:04:00;14.2;71.7
9666;DHT22;4871;52.004;5.924;2023-05-10T04:05:06;14.2;72.1
9666;DHT22;4871;52.004;5.924;2023-05-10T04:06:01;14.2;71.7
9666;DHT22;4871;52.004;5.924;2023-05-10T04:07:04;14.2;71.5
9666;DHT22;4871;52.004;5.924;2023-05-10T04:08:00;14.2;71.8
9666;DHT22;4871;52.004;5.924;2023-05-10T04:09:05;14.2;71.9
9666;DHT22;4871;52.004;5.924;2023-05-10T04:10:00;14.2;72.0
9666;DHT22;4871;52.004;5.924;2023-05-10T04:11:05;14.1;72.0
9666;DHT22;4871;52.004;5.924;2023-05-10T04:12:02;14.1;72.0
9666;DHT22;4871;52.004;5.924;2023-05-10T04:13:04;14.1;71.9
9666;DHT22;4871;52.004;5.924;2023-05-10T04:14:00;14.1;71.7
9666;DHT22;4871;52.004;5.924;2023-05-10T04:15:05;14.1;71.6
9666;DHT22;4871;52.004;5.924;2023-05-10T04:16:00;14.2;71.6
9666;DHT22;4871;52.004;5.924;2023-05-10T04:17:03;14.1;71.9
9666;DHT22;4871;52.004;5.924;2023-05-10T04:18:00;14.1;72.0
9666;DHT22;4871;52.004;5.924;2023-05-10T04:19:04;14.1;72.0
9666;DHT22;4871;52.004;5.924;2023-05-10T04:20:00;14.1;71.6
9666;DHT22;4871;52.004;5.924;2023-05-10T04:21:11;14.1;71.2
9666;DHT22;4871;52.004;5.924;2023-05-10T04:22:02;14.1;71.8
9666;DHT22;4871;52.004;5.924;2023-05-10T04:23:05;14.1;71.8
9666;DHT22;4871;52.004;5.924;2023-05-10T04:24:00;14.1;72.1
9666;DHT22;4871;52.004;5.924;2023-05-10T04:25:05;14.1;71.9
9666;DHT22;4871;52.004;5.924;2023-05-10T04:26:00;14.1;71.6
9666;DHT22;4871;52.004;5.924;2023-05-10T04:27:06;14.1;71.5
9666;DHT22;4871;52.004;5.924;2023-05-10T04:28:00;14.1;71.9
9666;DHT22;4871;52.004;5.924;2023-05-10T04:29:04;14.1;72.0
9666;DHT22;4871;52.004;5.924;2023-05-10T04:30:00;14.1;72.2
9666;DHT22;4871;52.004;5.924;2023-05-10T04:31:05;14.1;71.7
9666;DHT22;4871;52.004;5.924;2023-05-10T04:32:00;14.1;71.9
9666;DHT22;4871;52.004;5.924;2023-05-10T04:33:04;14.1;72.2
9666;DHT22;4871;52.004;5.924;2023-05-10T04:34:00;14.1;71.9
9666;DHT22;4871;52.004;5.924;2023-05-10T04:35:05;14.1;72.5
9666;DHT22;4871;52.004;5.924;2023-05-10T04:36:01;14.1;71.9
9666;DHT22;4871;52.004;5.924;2023-05-10T04:37:03;14.1;72.5
9666;DHT22;4871;52.004;5.924;2023-05-10T04:38:00;14.1;71.9
9666;DHT22;4871;52.004;5.924;2023-05-10T04:39:04;14.1;71.8
9666;DHT22;4871;52.004;5.924;2023-05-10T04:40:00;14.1;71.9
9666;DHT22;4871;52.004;5.924;2023-05-10T04:41:05;14.1;71.9
9666;DHT22;4871;52.004;5.924;2023-05-10T04:42:00;14.1;71.7
9666;DHT22;4871;52.004;5.924;2023-05-10T04:43:04;14.1;72.1
9666;DHT22;4871;52.004;5.924;2023-05-10T04:44:00;14.1;71.6
9666;DHT22;4871;52.004;5.924;2023-05-10T04:45:06;14.1;71.7
9666;DHT22;4871;52.004;5.924;2023-05-10T04:46:00;14.1;71.7
9666;DHT22;4871;52.004;5.924;2023-05-10T04:47:04;14.1;71.8
9666;DHT22;4871;52.004;5.924;2023-05-10T04:48:00;14.1;71.8
9666;DHT22;4871;52.004;5.924;2023-05-10T04:49:04;14.1;72.4
9666;DHT22;4871;52.004;5.924;2023-05-10T04:50:00;14.0;72.8
9666;DHT22;4871;52.004;5.924;2023-05-10T04:51:04;14.0;72.3
9666;DHT22;4871;52.004;5.924;2023-05-10T04:52:00;14.0;72.9
9666;DHT22;4871;52.004;5.924;2023-05-10T04:53:05;14.0;72.5
9666;DHT22;4871;52.004;5.924;2023-05-10T04:54:00;14.0;72.3
9666;DHT22;4871;52.004;5.924;2023-05-10T04:55:04;14.1;72.3
9666;DHT22;4871;52.004;5.924;2023-05-10T04:56:00;14.1;71.9
9666;DHT22;4871;52.004;5.924;2023-05-10T04:57:04;14.0;72.1
9666;DHT22;4871;52.004;5.924;2023-05-10T04:58:00;14.0;72.5
9666;DHT22;4871;52.004;5.924;2023-05-10T04:59:04;14.0;72.0
9666;DHT22;4871;52.004;5.924;2023-05-10T05:00:00;14.1;71.7
9666;DHT22;4871;52.004;5.924;2023-05-10T05:01:07;14.0;72.2
9666;DHT22;4871;52.004;5.924;2023-05-10T05:02:00;14.1;72.3
9666;DHT22;4871;52.004;5.924;2023-05-10T05:03:05;14.1;71.7
9666;DHT22;4871;52.004;5.924;2023-05-10T05:04:00;14.1;71.8
9666;DHT22;4871;52.004;5.924;2023-05-10T05:05:06;14.1;71.6
9666;DHT22;4871;52.004;5.924;2023-05-10T05:06:00;14.1;71.8
9666;DHT22;4871;52.004;5.924;2023-05-10T05:07:05;14.1;71.6
9666;DHT22;4871;52.004;5.924;2023-05-10T05:08:00;14.0;71.8
9666;DHT22;4871;52.004;5.924;2023-05-10T05:09:04;14.0;71.9
9666;DHT22;4871;52.004;5.924;2023-05-10T05:10:00;14.0;72.4
9666;DHT22;4871;52.004;5.924;2023-05-10T05:11:05;14.0;72.3
9666;DHT22;4871;52.004;5.924;2023-05-10T05:12:00;14.0;72.1
9666;DHT22;4871;52.004;5.924;2023-05-10T05:13:06;14.0;71.8
9666;DHT22;4871;52.004;5.924;2023-05-10T05:14:00;14.0;72.2
9666;DHT22;4871;52.004;5.924;2023-05-10T05:15:06;14.0;72.0
9666;DHT22;4871;52.004;5.924;2023-05-10T05:16:00;14.0;71.8
9666;DHT22;4871;52.004;5.924;2023-05-10T05:17:04;14.0;71.8
9666;DHT22;4871;52.004;5.924;2023-05-10T05:18:00;14.0;71.9
9666;DHT22;4871;52.004;5.924;2023-05-10T05:19:05;14.0;71.9
9666;DHT22;4871;52.004;5.924;2023-05-10T05:20:00;14.0;71.7
9666;DHT22;4871;52.004;5.924;2023-05-10T05:21:13;14.1;71.7
9666;DHT22;4871;52.004;5.924;2023-05-10T05:22:00;14.1;71.7
9666;DHT22;4871;52.004;5.924;2023-05-10T05:23:04;14.0;72.1
9666;DHT22;4871;52.004;5.924;2023-05-10T05:24:00;14.0;71.9
9666;DHT22;4871;52.004;5.924;2023-05-10T05:25:06;14.0;71.6
9666;DHT22;4871;52.004;5.924;2023-05-10T05:26:00;14.0;71.8
9666;DHT22;4871;52.004;5.924;2023-05-10T05:27:04;14.0;71.5
9666;DHT22;4871;52.004;5.924;2023-05-10T05:28:00;14.0;71.7
9666;DHT22;4871;52.004;5.924;2023-05-10T05:29:06;14.0;71.8
9666;DHT22;4871;52.004;5.924;2023-05-10T05:30:00;14.0;71.8
9666;DHT22;4871;52.004;5.924;2023-05-10T05:31:07;14.0;71.5
9666;DHT22;4871;52.004;5.924;2023-05-10T05:32:00;14.0;71.5
9666;DHT22;4871;52.004;5.924;2023-05-10T05:33:04;14.0;71.5
9666;DHT22;4871;52.004;5.924;2023-05-10T05:34:00;14.0;71.6
9666;DHT22;4871;52.004;5.924;2023-05-10T05:35:04;14.0;71.6
9666;DHT22;4871;52.004;5.924;2023-05-10T05:36:00;14.0;71.7
9666;DHT22;4871;52.004;5.924;2023-05-10T05:37:04;14.1;71.6
9666;DHT22;4871;52.004;5.924;2023-05-10T05:38:00;14.1;71.5
9666;DHT22;4871;52.004;5.924;2023-05-10T05:39:04;14.1;71.5
9666;DHT22;4871;52.004;5.924;2023-05-10T05:40:02;14.1;71.6
9666;DHT22;4871;52.004;5.924;2023-05-10T05:41:04;14.1;71.4
9666;DHT22;4871;52.004;5.924;2023-05-10T05:42:00;14.1;71.6
9666;DHT22;4871;52.004;5.924;2023-05-10T05:43:06;14.1;71.5
9666;DHT22;4871;52.004;5.924;2023-05-10T05:44:00;14.1;71.8
9666;DHT22;4871;52.004;5.924;2023-05-10T05:45:07;14.1;71.6
9666;DHT22;4871;52.004;5.924;2023-05-10T05:46:00;14.1;71.3
9666;DHT22;4871;52.004;5.924;2023-05-10T05:47:06;14.2;71.6
9666;DHT22;4871;52.004;5.924;2023-05-10T05:48:00;14.2;71.7
9666;DHT22;4871;52.004;5.924;2023-05-10T05:49:05;14.2;71.3
9666;DHT22;4871;52.004;5.924;2023-05-10T05:50:00;14.2;71.3
9666;DHT22;4871;52.004;5.924;2023-05-10T05:51:05;14.2;71.4
9666;DHT22;4871;52.004;5.924;2023-05-10T05:52:01;14.2;71.4
9666;DHT22;4871;52.004;5.924;2023-05-10T05:53:04;14.2;71.5
9666;DHT22;4871;52.004;5.924;2023-05-10T05:54:00;14.2;71.5
9666;DHT22;4871;52.004;5.924;2023-05-10T05:55:05;14.2;72.0
9666;DHT22;4871;52.004;5.924;2023-05-10T05:56:00;14.2;72.2
9666;DHT22;4871;52.004;5.924;2023-05-10T05:57:04;14.2;72.5
9666;DHT22;4871;52.004;5.924;2023-05-10T05:58:00;14.2;72.4
9666;DHT22;4871;52.004;5.924;2023-05-10T05:59:04;14.2;72.5
9666;DHT22;4871;52.004;5.924;2023-05-10T06:00:00;14.3;72.7
9666;DHT22;4871;52.004;5.924;2023-05-10T06:01:04;14.3;72.5
9666;DHT22;4871;52.004;5.924;2023-05-10T06:02:00;14.3;72.4
9666;DHT22;4871;52.004;5.924;2023-05-10T06:03:04;14.3;72.4
9666;DHT22;4871;52.004;5.924;2023-05-10T06:04:00;14.3;72.3
9666;DHT22;4871;52.004;5.924;2023-05-10T06:05:06;14.3;72.5
9666;DHT22;4871;52.004;5.924;2023-05-10T06:06:00;14.3;72.6
9666;DHT22;4871;52.004;5.924;2023-05-10T06:07:05;14.4;72.3
9666;DHT22;4871;52.004;5.924;2023-05-10T06:08:01;14.4;72.5
9666;DHT22;4871;52.004;5.924;2023-05-10T06:09:05;14.4;72.3
9666;DHT22;4871;52.004;5.924;2023-05-10T06:10:00;14.4;72.2
9666;DHT22;4871;52.004;5.924;2023-05-10T06:11:04;14.4;72.4
9666;DHT22;4871;52.004;5.924;2023-05-10T06:12:00;14.4;72.8
9666;DHT22;4871;52.004;5.924;2023-05-10T06:13:04;14.4;72.7
9666;DHT22;4871;52.004;5.924;2023-05-10T06:14:00;14.4;72.6
9666;DHT22;4871;52.004;5.924;2023-05-10T06:15:06;14.4;72.6
9666;DHT22;4871;52.004;5.924;2023-05-10T06:16:00;14.4;72.3
9666;DHT22;4871;52.004;5.924;2023-05-10T06:17:05;14.4;72.3
9666;DHT22;4871;52.004;5.924;2023-05-10T06:18:00;14.4;72.3
9666;DHT22;4871;52.004;5.924;2023-05-10T06:19:05;14.4;72.5
9666;DHT22;4871;52.004;5.924;2023-05-10T06:20:00;14.4;72.4
9666;DHT22;4871;52.004;5.924;2023-05-10T06:21:05;14.4;72.6
9666;DHT22;4871;52.004;5.924;2023-05-10T06:22:00;14.4;72.6
9666;DHT22;4871;52.004;5.924;2023-05-10T06:23:05;14.4;72.4
9666;DHT22;4871;52.004;5.924;2023-05-10T06:24:00;14.4;72.7
9666;DHT22;4871;52.004;5.924;2023-05-10T06:25:07;14.4;72.6
9666;DHT22;4871;52.004;5.924;2023-05-10T06:26:00;14.4;72.6
9666;DHT22;4871;52.004;5.924;2023-05-10T06:27:05;14.4;72.8
9666;DHT22;4871;52.004;5.924;2023-05-10T06:28:00;14.4;72.6
9666;DHT22;4871;52.004;5.924;2023-05-10T06:29:05;14.4;72.7
9666;DHT22;4871;52.004;5.924;2023-05-10T06:30:00;14.4;72.6
9666;DHT22;4871;52.004;5.924;2023-05-10T06:31:06;14.4;72.6
9666;DHT22;4871;52.004;5.924;2023-05-10T06:32:00;14.4;72.8
9666;DHT22;4871;52.004;5.924;2023-05-10T06:33:04;14.4;72.9
9666;DHT22;4871;52.004;5.924;2023-05-10T06:34:00;14.4;72.8
9666;DHT22;4871;52.004;5.924;2023-05-10T06:35:06;14.4;72.7
9666;DHT22;4871;52.004;5.924;2023-05-10T06:36:00;14.4;72.6
9666;DHT22;4871;52.004;5.924;2023-05-10T06:37:06;14.4;72.7
9666;DHT22;4871;52.004;5.924;2023-05-10T06:38:00;14.4;72.9
9666;DHT22;4871;52.004;5.924;2023-05-10T06:39:07;14.4;72.6
9666;DHT22;4871;52.004;5.924;2023-05-10T06:40:00;14.5;72.6
9666;DHT22;4871;52.004;5.924;2023-05-10T06:41:07;14.4;72.5
9666;DHT22;4871;52.004;5.924;2023-05-10T06:42:01;14.4;72.8
9666;DHT22;4871;52.004;5.924;2023-05-10T06:43:05;14.4;72.7
9666;DHT22;4871;52.004;5.924;2023-05-10T06:44:00;14.4;72.8